You are listening to:
RJTT Del/Twr/TCA/Gnd - Tokyo, Japan

RJTT 161330Z 35009KT 9999 FEW013 BKN030 BKN038 16/13 Q1012 NOSIG RMK 1CU013 6SC030 7SC038 A2991

If stream doesn't start automatically press the play button
If stream stops then reload player then press play